Time;durP1;ratioP1;P1;durP2;ratioP2;P2;SDS_P1;SDS_P2;PMS_P1;PMS_P2;Temp;Humidity;BMP_temperature;BMP_pressure;BME280_temperature;BME280_humidity;BME280_pressure;Samples;Min_cycle;Max_cycle;Signal;HPM_P1;HPM_P2
2023/04/07 00:02:05;;;;;;;;;;;7.40;99.90;;;;;;5094665;28;19928;-65
2023/04/07 00:04:31;;;;;;;;;;;7.40;99.90;;;;;;5094128;28;19931;-66
2023/04/07 00:06:56;;;;;;;;;;;7.40;99.90;;;;;;5076547;28;19949;-66
2023/04/07 00:09:22;;;;;;;;;;;7.40;99.90;;;;;;5094060;28;20281;-66
2023/04/07 00:11:47;;;;;;;;;;;7.40;99.90;;;;;;5076765;28;19930;-66
2023/04/07 00:14:13;;;;;;;;;;;7.50;99.90;;;;;;5094429;28;19924;-65
2023/04/07 00:16:39;;;;;;;;;;;6.80;99.90;;;;;;5094068;28;19931;-66
2023/04/07 00:19:05;;;;;;;;;;;7.40;99.90;;;;;;5076298;28;19928;-65
2023/04/07 00:21:30;;;;;;;;;;;7.40;99.90;;;;;;5093958;28;19931;-66
2023/04/07 00:23:56;;;;;;;;;;;7.40;99.90;;;;;;5094201;28;20253;-65
2023/04/07 00:26:22;;;;;;;;;;;7.40;99.90;;;;;;5093799;28;19932;-66
2023/04/07 00:28:47;;;;;;;;;;;7.40;99.90;;;;;;5094177;28;19977;-66
2023/04/07 00:31:13;;;;;;;;;;;7.30;99.90;;;;;;5093666;28;19925;-65
2023/04/07 00:33:38;;;;;;;;;;;7.40;99.90;;;;;;5093759;28;19931;-66
2023/04/07 00:36:05;;;;;;;;;;;7.40;99.90;;;;;;5093605;28;20296;-66
2023/04/07 00:38:30;;;;;;;;;;;7.40;99.90;;;;;;5093622;28;19924;-66
2023/04/07 00:40:57;;;;;;;;;;;7.30;99.90;;;;;;5075815;28;19924;-65
2023/04/07 00:43:24;;;;;;;;;;;7.40;99.90;;;;;;5093825;28;19934;-64
2023/04/07 00:45:49;;;;;;;;;;;7.30;99.90;;;;;;5093808;28;20015;-66
2023/04/07 00:48:15;;;;;;;;;;;7.30;99.90;;;;;;5075741;28;20007;-66
2023/04/07 00:50:41;;;;;;;;;;;7.30;99.90;;;;;;5074909;28;19925;-65
2023/04/07 00:53:06;;;;;;;;;;;7.30;99.90;;;;;;5075644;28;19924;-65
2023/04/07 00:55:32;;;;;;;;;;;7.40;99.90;;;;;;5093204;28;20289;-65
2023/04/07 00:57:57;;;;;;;;;;;7.30;99.90;;;;;;5093884;28;19972;-65
2023/04/07 01:00:23;;;;;;;;;;;7.30;99.90;;;;;;5058497;28;19924;-65
2023/04/07 01:02:56;;;;;;;;;;;7.30;99.90;;;;;;5075697;28;20425;-65
2023/04/07 01:05:30;;;;;;;;;;;7.30;99.90;;;;;;5075486;28;19928;-65
2023/04/07 01:08:01;;;;;;;;;;;7.30;99.90;;;;;;5093379;28;19924;-65
2023/04/07 01:10:34;;;;;;;;;;;7.30;99.90;;;;;;5093002;28;20294;-65
2023/04/07 01:13:21;;;;;;;;;;;7.30;99.90;;;;;;5093485;28;20000;-66
2023/04/07 01:15:48;;;;;;;;;;;7.30;99.90;;;;;;5058262;28;19974;-65
2023/04/07 01:18:18;;;;;;;;;;;7.30;99.90;;;;;;5075221;28;19924;-66
2023/04/07 01:20:44;;;;;;;;;;;7.30;99.90;;;;;;5074363;28;20591;-65
2023/04/07 01:23:16;;;;;;;;;;;7.30;99.90;;;;;;5093045;28;19931;-65
2023/04/07 01:25:41;;;;;;;;;;;7.30;99.90;;;;;;5092691;28;19945;-66
2023/04/07 01:28:07;;;;;;;;;;;7.30;99.90;;;;;;5093138;28;19925;-64
2023/04/07 01:30:34;;;;;;;;;;;7.30;99.90;;;;;;5092531;28;19955;-65
2023/04/07 01:33:01;;;;;;;;;;;7.30;99.90;;;;;;5093019;28;19993;-65
2023/04/07 01:35:29;;;;;;;;;;;7.30;99.90;;;;;;5092549;28;19924;-65
2023/04/07 01:37:56;;;;;;;;;;;7.20;99.90;;;;;;5092785;28;19984;-66
2023/04/07 01:40:22;;;;;;;;;;;7.30;99.90;;;;;;5074765;28;19928;-66
2023/04/07 01:42:48;;;;;;;;;;;7.20;99.90;;;;;;5092505;28;19924;-66
2023/04/07 01:45:15;;;;;;;;;;;7.20;99.90;;;;;;5092749;28;19924;-65
2023/04/07 01:47:41;;;;;;;;;;;7.30;99.90;;;;;;5092452;28;19931;-66
2023/04/07 01:50:08;;;;;;;;;;;7.20;99.90;;;;;;5092662;28;20027;-66
2023/04/07 01:52:34;;;;;;;;;;;7.20;99.90;;;;;;5092207;28;19925;-66
2023/04/07 01:54:59;;;;;;;;;;;7.20;99.90;;;;;;5092626;28;19931;-66
2023/04/07 01:57:25;;;;;;;;;;;7.20;99.90;;;;;;5092537;28;19928;-65
2023/04/07 01:59:51;;;;;;;;;;;7.20;99.90;;;;;;5092113;28;19930;-66
2023/04/07 02:02:17;;;;;;;;;;;7.10;99.90;;;;;;5092399;28;19924;-66
2023/04/07 02:04:54;;;;;;;;;;;7.20;99.90;;;;;;5092050;28;19924;-66
2023/04/07 02:07:23;;;;;;;;;;;7.10;99.90;;;;;;5074617;28;19928;-67
2023/04/07 02:09:50;;;;;;;;;;;7.10;99.90;;;;;;5091363;28;19920;-67
2023/04/07 02:12:16;;;;;;;;;;;7.10;99.90;;;;;;5092357;28;19967;-66
2023/04/07 02:14:41;;;;;;;;;;;7.10;99.90;;;;;;5073615;28;19979;-66
2023/04/07 02:17:07;;;;;;;;;;;7.00;99.90;;;;;;5092263;28;19924;-66
2023/04/07 02:19:36;;;;;;;;;;;7.00;99.90;;;;;;5074010;28;20384;-67
2023/04/07 02:22:03;;;;;;;;;;;7.00;99.90;;;;;;5074413;28;19967;-67
2023/04/07 02:24:29;;;;;;;;;;;7.10;99.90;;;;;;5092261;28;19993;-66
2023/04/07 02:26:55;;;;;;;;;;;7.00;99.90;;;;;;5091855;28;20293;-67
2023/04/07 02:29:20;;;;;;;;;;;7.00;99.90;;;;;;5092019;28;19924;-66
2023/04/07 02:31:46;;;;;;;;;;;7.10;99.90;;;;;;5091959;28;19924;-67
2023/04/07 02:34:11;;;;;;;;;;;6.90;99.90;;;;;;5092090;28;19928;-66
2023/04/07 02:36:37;;;;;;;;;;;7.20;99.90;;;;;;5091465;28;20311;-66
2023/04/07 02:39:03;;;;;;;;;;;7.10;99.90;;;;;;5074354;28;19979;-67
2023/04/07 02:41:28;;;;;;;;;;;7.00;99.90;;;;;;5091791;28;20044;-68
2023/04/07 02:43:54;;;;;;;;;;;7.00;99.90;;;;;;5091686;28;19923;-66
2023/04/07 02:46:19;;;;;;;;;;;7.10;99.90;;;;;;5091978;28;20014;-66
2023/04/07 02:48:45;;;;;;;;;;;7.00;99.90;;;;;;5073811;28;20365;-67
2023/04/07 02:51:11;;;;;;;;;;;7.00;99.90;;;;;;5091589;28;20337;-65
2023/04/07 02:53:36;;;;;;;;;;;7.00;99.90;;;;;;5073387;28;20296;-66
2023/04/07 02:56:02;;;;;;;;;;;7.00;99.90;;;;;;5073644;28;19974;-65
2023/04/07 02:58:27;;;;;;;;;;;6.90;99.90;;;;;;5073398;28;20410;-64
2023/04/07 03:00:53;;;;;;;;;;;7.00;99.90;;;;;;5072995;28;19924;-64
2023/04/07 03:03:19;;;;;;;;;;;7.00;99.90;;;;;;5072937;28;20079;-64
2023/04/07 03:05:44;;;;;;;;;;;7.00;99.90;;;;;;5091446;28;19928;-64
2023/04/07 03:08:10;;;;;;;;;;;7.00;99.90;;;;;;5073636;28;19924;-65
2023/04/07 03:10:36;;;;;;;;;;;7.00;99.90;;;;;;5073449;28;19924;-65
2023/04/07 03:13:01;;;;;;;;;;;7.00;99.90;;;;;;5073212;28;19928;-65
2023/04/07 03:15:27;;;;;;;;;;;7.00;99.90;;;;;;5056987;28;19924;-64
2023/04/07 03:17:52;;;;;;;;;;;7.10;99.90;;;;;;5090909;28;20328;-65
2023/04/07 03:20:18;;;;;;;;;;;6.40;99.90;;;;;;5091374;28;20376;-65
2023/04/07 03:22:46;;;;;;;;;;;7.00;99.90;;;;;;5076454;28;20000;-64
2023/04/07 03:25:11;;;;;;;;;;;6.90;99.90;;;;;;5077148;28;19924;-65
2023/04/07 03:27:37;;;;;;;;;;;7.00;99.90;;;;;;5095016;28;20353;-64
2023/04/07 03:30:03;;;;;;;;;;;7.00;99.90;;;;;;5094703;28;20257;-65
2023/04/07 03:32:28;;;;;;;;;;;7.00;99.90;;;;;;5095048;28;19947;-65
2023/04/07 03:34:54;;;;;;;;;;;7.00;99.90;;;;;;5076656;28;19967;-65
2023/04/07 03:37:19;;;;;;;;;;;6.90;99.90;;;;;;5073146;28;19924;-64
2023/04/07 03:39:45;;;;;;;;;;;7.00;99.90;;;;;;5073967;28;19925;-65
2023/04/07 03:42:10;;;;;;;;;;;7.00;99.90;;;;;;5073155;28;19924;-65
2023/04/07 03:44:36;;;;;;;;;;;7.00;99.90;;;;;;5073256;28;20378;-67
2023/04/07 03:47:02;;;;;;;;;;;7.00;99.90;;;;;;5074036;28;20018;-65
2023/04/07 03:49:28;;;;;;;;;;;7.00;99.90;;;;;;5074595;28;19924;-65
2023/04/07 03:51:53;;;;;;;;;;;6.90;99.90;;;;;;5056528;28;19924;-65
2023/04/07 03:54:19;;;;;;;;;;;7.00;99.90;;;;;;5039796;28;20007;-65
2023/04/07 03:56:45;;;;;;;;;;;7.00;99.90;;;;;;5073998;28;19968;-66
2023/04/07 03:59:10;;;;;;;;;;;7.00;99.90;;;;;;5073019;28;20003;-66
2023/04/07 04:01:36;;;;;;;;;;;7.00;99.90;;;;;;5074135;28;19926;-64
2023/04/07 04:04:01;;;;;;;;;;;7.00;99.90;;;;;;5072601;28;20025;-64
2023/04/07 04:06:27;;;;;;;;;;;6.90;99.90;;;;;;5074326;28;19979;-65
2023/04/07 04:08:52;;;;;;;;;;;6.90;99.90;;;;;;5072889;28;20285;-64
2023/04/07 04:11:18;;;;;;;;;;;6.90;99.90;;;;;;5074099;28;19924;-64
2023/04/07 04:13:44;;;;;;;;;;;6.80;99.90;;;;;;5072753;28;19928;-65
2023/04/07 04:16:10;;;;;;;;;;;6.90;99.90;;;;;;5072755;28;20251;-65
2023/04/07 04:18:35;;;;;;;;;;;6.90;99.90;;;;;;5072971;28;20419;-65
2023/04/07 04:21:01;;;;;;;;;;;7.00;99.90;;;;;;5073475;28;19967;-64
2023/04/07 04:23:26;;;;;;;;;;;6.90;99.90;;;;;;5072691;28;19931;-65
2023/04/07 04:25:52;;;;;;;;;;;6.90;99.90;;;;;;5055313;28;20282;-65
2023/04/07 04:28:17;;;;;;;;;;;6.90;99.90;;;;;;5072829;28;19977;-65
2023/04/07 04:30:43;;;;;;;;;;;6.90;99.90;;;;;;5073731;28;19932;-65
2023/04/07 04:33:08;;;;;;;;;;;6.90;99.90;;;;;;5072810;28;19921;-65
2023/04/07 04:35:34;;;;;;;;;;;6.90;99.90;;;;;;5072342;28;20019;-65
2023/04/07 04:38:00;;;;;;;;;;;7.00;99.90;;;;;;5088389;28;19924;-65
2023/04/07 04:40:25;;;;;;;;;;;6.90;99.90;;;;;;5075643;28;19925;-65
2023/04/07 04:42:51;;;;;;;;;;;6.90;99.90;;;;;;5075497;28;19932;-66
2023/04/07 04:45:17;;;;;;;;;;;6.90;99.90;;;;;;5093408;28;19964;-65
2023/04/07 04:47:42;;;;;;;;;;;6.90;99.90;;;;;;5093058;28;19986;-66
2023/04/07 04:50:08;;;;;;;;;;;6.90;99.90;;;;;;5092831;28;19931;-65
2023/04/07 04:52:34;;;;;;;;;;;6.90;99.90;;;;;;5093273;28;19959;-65
2023/04/07 04:55:00;;;;;;;;;;;6.90;99.90;;;;;;5075246;28;20399;-65
2023/04/07 04:57:25;;;;;;;;;;;6.90;99.90;;;;;;5093230;28;19930;-65
2023/04/07 04:59:51;;;;;;;;;;;6.90;99.90;;;;;;5075017;28;19975;-65
2023/04/07 05:02:16;;;;;;;;;;;6.90;99.90;;;;;;5074866;28;19924;-65
2023/04/07 05:04:42;;;;;;;;;;;7.00;99.90;;;;;;5075066;28;19924;-65
2023/04/07 05:07:08;;;;;;;;;;;6.90;99.90;;;;;;5092755;28;19924;-65
2023/04/07 05:09:33;;;;;;;;;;;6.90;99.90;;;;;;5092765;28;19924;-65
2023/04/07 05:12:00;;;;;;;;;;;6.90;99.90;;;;;;5092449;28;19928;-65
2023/04/07 05:14:26;;;;;;;;;;;6.90;99.90;;;;;;5092928;28;19947;-65
2023/04/07 05:16:53;;;;;;;;;;;6.90;99.90;;;;;;5074897;28;19928;-65
2023/04/07 05:19:18;;;;;;;;;;;6.90;99.90;;;;;;5074727;28;19924;-65
2023/04/07 05:21:44;;;;;;;;;;;6.90;99.90;;;;;;5075161;28;19935;-66
2023/04/07 05:24:09;;;;;;;;;;;6.90;99.90;;;;;;5092565;28;19977;-65
2023/04/07 05:26:35;;;;;;;;;;;6.90;99.90;;;;;;5093260;28;19924;-65
2023/04/07 05:29:00;;;;;;;;;;;6.90;99.90;;;;;;5074698;28;19924;-64
2023/04/07 05:31:26;;;;;;;;;;;6.80;99.90;;;;;;5074792;28;20388;-64
2023/04/07 05:33:52;;;;;;;;;;;6.90;99.90;;;;;;5093067;28;20066;-65
2023/04/07 05:36:18;;;;;;;;;;;6.90;99.90;;;;;;5074988;28;19935;-69
2023/04/07 05:38:44;;;;;;;;;;;6.90;99.90;;;;;;5074473;28;19928;-65
2023/04/07 05:41:11;;;;;;;;;;;6.90;99.90;;;;;;5057790;28;20501;-65
2023/04/07 05:43:36;;;;;;;;;;;6.90;99.90;;;;;;5057842;28;20015;-65
2023/04/07 05:46:02;;;;;;;;;;;6.90;99.90;;;;;;5057475;28;20018;-65
2023/04/07 05:48:27;;;;;;;;;;;6.90;99.90;;;;;;5074301;28;19924;-65
2023/04/07 05:50:53;;;;;;;;;;;6.90;99.90;;;;;;5074517;28;19975;-65
2023/04/07 05:53:19;;;;;;;;;;;6.80;99.90;;;;;;5073613;28;19924;-66
2023/04/07 05:55:44;;;;;;;;;;;6.90;99.90;;;;;;5091919;28;19924;-65
2023/04/07 05:58:10;;;;;;;;;;;6.90;99.90;;;;;;5073842;28;20263;-65
2023/04/07 06:00:35;;;;;;;;;;;6.90;99.90;;;;;;5091968;28;19931;-65
2023/04/07 06:03:02;;;;;;;;;;;6.90;99.90;;;;;;5074307;28;19928;-65
2023/04/07 06:05:27;;;;;;;;;;;7.00;99.90;;;;;;5074235;28;19931;-65
2023/04/07 06:07:53;;;;;;;;;;;7.00;99.90;;;;;;5074187;28;19924;-65
2023/04/07 06:10:19;;;;;;;;;;;7.00;99.90;;;;;;5091737;28;19932;-65
2023/04/07 06:12:44;;;;;;;;;;;6.90;99.90;;;;;;5091995;28;20445;-65
2023/04/07 06:15:10;;;;;;;;;;;7.00;99.90;;;;;;5073713;28;19924;-65
2023/04/07 06:17:36;;;;;;;;;;;6.90;99.90;;;;;;5057560;28;19924;-64
2023/04/07 06:20:01;;;;;;;;;;;7.00;99.90;;;;;;5091889;28;19932;-64
2023/04/07 06:22:27;;;;;;;;;;;7.00;99.90;;;;;;5073417;28;19931;-65
2023/04/07 06:24:52;;;;;;;;;;;7.00;99.90;;;;;;5092166;28;20026;-67
2023/04/07 06:27:18;;;;;;;;;;;7.00;99.90;;;;;;5073546;28;20404;-65
2023/04/07 06:29:43;;;;;;;;;;;7.00;99.90;;;;;;5074214;28;19928;-65
2023/04/07 06:32:09;;;;;;;;;;;7.10;99.90;;;;;;5091584;28;19993;-66
2023/04/07 06:34:35;;;;;;;;;;;7.10;99.90;;;;;;5074216;28;19924;-66
2023/04/07 06:37:01;;;;;;;;;;;7.10;99.90;;;;;;5091630;28;20297;-64
2023/04/07 06:39:26;;;;;;;;;;;7.10;99.90;;;;;;5091686;28;19988;-65
2023/04/07 06:41:52;;;;;;;;;;;7.10;99.90;;;;;;5091839;28;20395;-65
2023/04/07 06:44:18;;;;;;;;;;;7.10;99.90;;;;;;5091754;28;19959;-65
2023/04/07 06:46:46;;;;;;;;;;;7.10;99.90;;;;;;5091471;28;19928;-65
2023/04/07 06:49:11;;;;;;;;;;;7.20;99.90;;;;;;5073446;28;19928;-65
2023/04/07 06:51:37;;;;;;;;;;;7.20;99.90;;;;;;5091989;28;20003;-65
2023/04/07 06:54:04;;;;;;;;;;;7.30;99.90;;;;;;5091416;28;19924;-65
2023/04/07 06:56:29;;;;;;;;;;;7.70;99.90;;;;;;5077227;28;20260;-67
2023/04/07 06:58:55;;;;;;;;;;;7.30;99.90;;;;;;5078223;28;19950;-64
2023/04/07 07:01:21;;;;;;;;;;;7.30;99.90;;;;;;5077574;28;19967;-65
2023/04/07 07:03:46;;;;;;;;;;;7.30;99.90;;;;;;5061504;28;19924;-66
2023/04/07 07:06:12;;;;;;;;;;;7.40;99.90;;;;;;5061012;28;19986;-67
2023/04/07 07:08:38;;;;;;;;;;;7.40;99.90;;;;;;5078043;28;19924;-66
2023/04/07 07:11:04;;;;;;;;;;;7.50;99.90;;;;;;5078060;28;20373;-65
2023/04/07 07:13:29;;;;;;;;;;;7.50;99.90;;;;;;5095637;28;20440;-66
2023/04/07 07:15:55;;;;;;;;;;;7.60;99.90;;;;;;5077464;28;19923;-65
2023/04/07 07:18:21;;;;;;;;;;;7.60;99.90;;;;;;5095436;28;19968;-65
2023/04/07 07:20:46;;;;;;;;;;;7.60;99.90;;;;;;5077540;28;19931;-65
2023/04/07 07:23:12;;;;;;;;;;;7.60;99.90;;;;;;5061147;28;20014;-66
2023/04/07 07:25:39;;;;;;;;;;;7.70;99.90;;;;;;5076380;28;20854;-65
2023/04/07 07:28:05;;;;;;;;;;;7.70;99.90;;;;;;5077218;28;19990;-64
2023/04/07 07:30:31;;;;;;;;;;;7.70;99.90;;;;;;5077201;28;19924;-64
2023/04/07 07:32:56;;;;;;;;;;;7.80;99.90;;;;;;5077200;28;19930;-64
2023/04/07 07:35:24;;;;;;;;;;;7.80;99.90;;;;;;5094933;28;20344;-65
2023/04/07 07:37:50;;;;;;;;;;;7.80;99.90;;;;;;5076763;28;19936;-65
2023/04/07 07:40:16;;;;;;;;;;;7.80;99.90;;;;;;5094814;28;19924;-66
2023/04/07 07:42:42;;;;;;;;;;;7.90;99.90;;;;;;5095156;28;19928;-65
2023/04/07 07:45:07;;;;;;;;;;;7.90;99.90;;;;;;5094311;28;19931;-69
2023/04/07 07:47:36;;;;;;;;;;;7.90;99.90;;;;;;5076197;28;19974;-68
2023/04/07 07:50:02;;;;;;;;;;;8.00;99.90;;;;;;5060157;28;19928;-69
2023/04/07 07:52:28;;;;;;;;;;;8.00;99.90;;;;;;5059540;28;20369;-69
2023/04/07 07:54:53;;;;;;;;;;;8.10;99.90;;;;;;5043475;28;19931;-69
2023/04/07 07:57:19;;;;;;;;;;;8.10;99.90;;;;;;5076069;28;20031;-71
2023/04/07 07:59:45;;;;;;;;;;;8.10;99.90;;;;;;5059891;28;20022;-68
2023/04/07 08:02:11;;;;;;;;;;;8.20;99.90;;;;;;5060202;28;19924;-69
2023/04/07 08:04:36;;;;;;;;;;;8.20;99.90;;;;;;5076306;28;20020;-68
2023/04/07 08:07:02;;;;;;;;;;;8.20;99.90;;;;;;5075644;28;20336;-68
2023/04/07 08:09:28;;;;;;;;;;;8.20;99.90;;;;;;5076014;28;19925;-68
2023/04/07 08:11:54;;;;;;;;;;;8.20;99.90;;;;;;5076195;28;19950;-68
2023/04/07 08:14:19;;;;;;;;;;;8.20;99.90;;;;;;5059647;28;19927;-69
2023/04/07 08:16:45;;;;;;;;;;;8.20;99.90;;;;;;5075084;28;20349;-69
2023/04/07 08:19:12;;;;;;;;;;;8.20;99.90;;;;;;5059598;28;20304;-68
2023/04/07 08:21:37;;;;;;;;;;;8.10;99.90;;;;;;5059010;28;19975;-69
2023/04/07 08:24:03;;;;;;;;;;;8.10;99.90;;;;;;5057562;28;19920;-70
2023/04/07 08:26:29;;;;;;;;;;;8.10;99.90;;;;;;5058467;28;20251;-70
2023/04/07 08:28:55;;;;;;;;;;;8.10;99.90;;;;;;5075620;28;19932;-70
2023/04/07 08:31:20;;;;;;;;;;;8.10;99.90;;;;;;5059156;28;19979;-70
2023/04/07 08:33:46;;;;;;;;;;;8.20;99.90;;;;;;5075915;28;19931;-70
2023/04/07 08:36:11;;;;;;;;;;;8.20;99.90;;;;;;5042223;28;20389;-70
2023/04/07 08:38:37;;;;;;;;;;;8.20;99.90;;;;;;5073239;28;19924;-69
2023/04/07 08:41:11;;;;;;;;;;;8.30;99.90;;;;;;5075386;28;19924;-69
2023/04/07 08:43:37;;;;;;;;;;;8.40;99.90;;;;;;5073952;28;19969;-70
2023/04/07 08:46:03;;;;;;;;;;;8.40;99.90;;;;;;5058503;28;19931;-69
2023/04/07 08:48:32;;;;;;;;;;;8.50;99.90;;;;;;5058528;28;19949;-71
2023/04/07 08:51:04;;;;;;;;;;;8.50;99.90;;;;;;5075443;28;19979;-69
2023/04/07 08:53:34;;;;;;;;;;;8.60;99.90;;;;;;5074815;28;19943;-69
2023/04/07 08:56:01;;;;;;;;;;;8.70;99.90;;;;;;5073711;28;19931;-70
2023/04/07 08:58:27;;;;;;;;;;;8.80;99.90;;;;;;5073946;28;20073;-71
2023/04/07 09:00:52;;;;;;;;;;;9.00;99.90;;;;;;5057920;28;19931;-70
2023/04/07 09:03:18;;;;;;;;;;;9.40;99.90;;;;;;5075174;28;19924;-71
2023/04/07 09:05:45;;;;;;;;;;;9.80;99.90;;;;;;5040205;28;20007;-72
2023/04/07 09:08:11;;;;;;;;;;;10.10;99.90;;;;;;5058220;28;19930;-71
2023/04/07 09:10:36;;;;;;;;;;;10.20;99.90;;;;;;5072905;28;19928;-70
2023/04/07 09:13:02;;;;;;;;;;;10.30;99.90;;;;;;5058350;28;20011;-70
2023/04/07 09:15:30;;;;;;;;;;;10.30;99.90;;;;;;5058157;28;19960;-70
2023/04/07 09:17:56;;;;;;;;;;;10.20;99.90;;;;;;5057169;28;19931;-70
2023/04/07 09:20:22;;;;;;;;;;;10.20;99.90;;;;;;5057399;28;19928;-70
2023/04/07 09:22:49;;;;;;;;;;;10.50;99.90;;;;;;5074462;28;19924;-71
2023/04/07 09:25:16;;;;;;;;;;;10.70;99.90;;;;;;5056904;28;20270;-70
2023/04/07 09:27:58;;;;;;;;;;;10.90;99.90;;;;;;5073128;28;19935;-71
2023/04/07 09:30:25;;;;;;;;;;;11.00;99.90;;;;;;5072755;28;19963;-71
2023/04/07 09:32:50;;;;;;;;;;;11.10;99.90;;;;;;5053557;28;19931;-72
2023/04/07 09:35:16;;;;;;;;;;;11.10;99.90;;;;;;5073555;28;19924;-70
2023/04/07 09:37:42;;;;;;;;;;;11.10;99.90;;;;;;5073744;28;19957;-71
2023/04/07 09:40:08;;;;;;;;;;;11.00;99.90;;;;;;5089923;28;19924;-70
2023/04/07 09:42:36;;;;;;;;;;;11.00;99.90;;;;;;5055576;28;20470;-71
2023/04/07 09:45:02;;;;;;;;;;;11.00;99.90;;;;;;5057925;28;19928;-69
2023/04/07 09:47:28;;;;;;;;;;;10.80;99.90;;;;;;5057832;28;19931;-69
2023/04/07 09:49:54;;;;;;;;;;;10.70;99.90;;;;;;5039209;28;20388;-70
2023/04/07 09:52:39;;;;;;;;;;;10.70;99.90;;;;;;5057413;28;19924;-71
2023/04/07 09:55:05;;;;;;;;;;;10.60;99.90;;;;;;5074452;28;19924;-71
2023/04/07 09:57:30;;;;;;;;;;;10.50;99.90;;;;;;5092297;28;19924;-70
2023/04/07 09:59:57;;;;;;;;;;;10.50;99.90;;;;;;5090327;28;19926;-68
2023/04/07 10:02:22;;;;;;;;;;;10.50;99.90;;;;;;5057430;28;19924;-69
2023/04/07 10:04:48;;;;;;;;;;;10.40;99.90;;;;;;5057429;28;20254;-69
2023/04/07 10:07:14;;;;;;;;;;;10.40;99.90;;;;;;5074199;28;19928;-68
2023/04/07 10:09:40;;;;;;;;;;;10.40;99.90;;;;;;5055370;28;19931;-69
2023/04/07 10:12:06;;;;;;;;;;;10.30;99.90;;;;;;5056764;28;20014;-69
2023/04/07 10:14:31;;;;;;;;;;;10.30;99.90;;;;;;5072369;28;19954;-68
2023/04/07 10:17:02;;;;;;;;;;;10.30;99.90;;;;;;5073125;28;20003;-70
2023/04/07 10:19:32;;;;;;;;;;;10.30;99.90;;;;;;5072376;28;19924;-68
2023/04/07 10:21:58;;;;;;;;;;;10.30;99.90;;;;;;5055265;28;19920;-70
2023/04/07 10:24:44;;;;;;;;;;;10.30;99.90;;;;;;5055725;28;20344;-69
2023/04/07 10:27:13;;;;;;;;;;;10.40;99.90;;;;;;5073293;28;20031;-69
2023/04/07 10:29:41;;;;;;;;;;;10.40;99.90;;;;;;5071522;28;19924;-70
2023/04/07 10:32:07;;;;;;;;;;;10.50;99.90;;;;;;5056948;28;19975;-68
2023/04/07 10:34:54;;;;;;;;;;;10.50;99.90;;;;;;5057364;28;19971;-68
2023/04/07 10:37:21;;;;;;;;;;;10.60;99.90;;;;;;5073577;28;19924;-68
2023/04/07 10:39:47;;;;;;;;;;;10.70;99.90;;;;;;5091025;28;20070;-67
2023/04/07 10:42:31;;;;;;;;;;;10.80;99.90;;;;;;5073482;28;19931;-68
2023/04/07 10:44:58;;;;;;;;;;;10.90;99.90;;;;;;5056825;28;19924;-68
2023/04/07 10:47:24;;;;;;;;;;;11.10;99.90;;;;;;5073543;28;19924;-66
2023/04/07 10:50:08;;;;;;;;;;;11.20;99.90;;;;;;5056348;28;19950;-68
2023/04/07 10:52:34;;;;;;;;;;;11.30;99.90;;;;;;5073442;28;20027;-68
2023/04/07 10:55:18;;;;;;;;;;;11.40;99.90;;;;;;5072977;28;20026;-68
2023/04/07 10:58:10;;;;;;;;;;;11.40;99.90;;;;;;5056566;28;20015;-71
2023/04/07 11:00:36;;;;;;;;;;;11.50;99.90;;;;;;5035197;28;19924;-69
2023/04/07 11:03:09;;;;;;;;;;;11.50;99.90;;;;;;5073119;28;19928;-69
2023/04/07 11:05:37;;;;;;;;;;;11.50;99.90;;;;;;5073829;28;19924;-67
2023/04/07 11:08:05;;;;;;;;;;;11.40;99.90;;;;;;5073219;28;19932;-68
2023/04/07 11:10:31;;;;;;;;;;;11.40;99.90;;;;;;5056768;28;20373;-68
2023/04/07 11:12:58;;;;;;;;;;;11.50;99.90;;;;;;5072883;28;19931;-68
2023/04/07 11:15:24;;;;;;;;;;;11.50;99.90;;;;;;5073553;28;20022;-68
2023/04/07 11:18:25;;;;;;;;;;;11.60;99.90;;;;;;5072905;28;19947;-69
2023/04/07 11:20:52;;;;;;;;;;;11.70;99.90;;;;;;4972490;28;19925;-68
2023/04/07 11:23:19;;;;;;;;;;;11.70;99.90;;;;;;5040202;28;19924;-68
2023/04/07 11:25:47;;;;;;;;;;;11.70;99.90;;;;;;5056196;28;19991;-69
2023/04/07 11:28:13;;;;;;;;;;;11.80;99.90;;;;;;5073320;28;19928;-69
2023/04/07 11:30:50;;;;;;;;;;;11.80;99.90;;;;;;5073449;28;20404;-68
2023/04/07 11:33:17;;;;;;;;;;;11.90;99.90;;;;;;5073400;28;20395;-69
2023/04/07 11:36:10;;;;;;;;;;;11.90;99.90;;;;;;5091106;28;19985;-67
2023/04/07 11:38:36;;;;;;;;;;;12.00;99.90;;;;;;5067677;28;19969;-69
2023/04/07 11:41:12;;;;;;;;;;;12.00;99.90;;;;;;5072702;28;20297;-68
2023/04/07 11:43:40;;;;;;;;;;;12.00;99.90;;;;;;5076595;28;19924;-66
2023/04/07 11:46:08;;;;;;;;;;;12.00;99.90;;;;;;5076622;28;20007;-68
2023/04/07 11:48:34;;;;;;;;;;;12.00;99.90;;;;;;5076593;28;19924;-67
2023/04/07 11:51:00;;;;;;;;;;;12.10;99.90;;;;;;5094284;28;19935;-68
2023/04/07 11:53:26;;;;;;;;;;;12.10;99.90;;;;;;5076444;28;20014;-67
2023/04/07 11:56:01;;;;;;;;;;;12.20;99.90;;;;;;5076230;28;20054;-70
2023/04/07 11:58:27;;;;;;;;;;;12.30;99.90;;;;;;5094407;28;20393;-69
2023/04/07 12:00:54;;;;;;;;;;;12.50;99.90;;;;;;5075878;28;19924;-68
2023/04/07 12:03:20;;;;;;;;;;;12.60;99.90;;;;;;5094343;28;19942;-66
2023/04/07 12:05:46;;;;;;;;;;;12.80;99.90;;;;;;5076683;28;19949;-66
2023/04/07 12:08:13;;;;;;;;;;;12.80;99.90;;;;;;5094087;28;19985;-66
2023/04/07 12:10:40;;;;;;;;;;;12.80;99.90;;;;;;5075775;28;19930;-66
2023/04/07 12:13:07;;;;;;;;;;;12.70;99.90;;;;;;5076180;28;20018;-67
2023/04/07 12:15:33;;;;;;;;;;;12.60;99.90;;;;;;5094415;28;19950;-65
2023/04/07 12:17:58;;;;;;;;;;;12.60;99.90;;;;;;5076315;28;19928;-65
2023/04/07 12:20:24;;;;;;;;;;;12.60;99.90;;;;;;5076066;28;19930;-65
2023/04/07 12:22:50;;;;;;;;;;;12.60;99.90;;;;;;5093882;28;20028;-66
2023/04/07 12:25:16;;;;;;;;;;;12.70;99.90;;;;;;5076013;28;19972;-66
2023/04/07 12:27:41;;;;;;;;;;;12.70;99.90;;;;;;5076450;28;19928;-65
2023/04/07 12:30:07;;;;;;;;;;;12.80;99.90;;;;;;5093783;28;19927;-65
2023/04/07 12:32:33;;;;;;;;;;;12.80;99.90;;;;;;5075849;28;19985;-66
2023/04/07 12:34:58;;;;;;;;;;;12.80;99.90;;;;;;5093935;28;19927;-66
2023/04/07 12:37:24;;;;;;;;;;;12.90;99.90;;;;;;5093779;28;20328;-66
2023/04/07 12:39:50;;;;;;;;;;;12.90;99.90;;;;;;5093781;28;19928;-67
2023/04/07 12:42:15;;;;;;;;;;;12.90;99.90;;;;;;5075598;28;19947;-66
2023/04/07 12:44:41;;;;;;;;;;;12.90;99.90;;;;;;5076033;28;19934;-65
2023/04/07 12:47:07;;;;;;;;;;;12.90;99.90;;;;;;5093357;28;19924;-65
2023/04/07 12:49:32;;;;;;;;;;;12.80;99.90;;;;;;5075184;28;19920;-65
2023/04/07 12:51:58;;;;;;;;;;;12.80;99.90;;;;;;5058916;28;19977;-65
2023/04/07 12:54:24;;;;;;;;;;;12.80;99.90;;;;;;5075070;28;19924;-65
2023/04/07 12:56:50;;;;;;;;;;;12.80;99.90;;;;;;5093599;28;19924;-66
2023/04/07 12:59:16;;;;;;;;;;;12.80;99.90;;;;;;5074992;28;19982;-66
2023/04/07 13:01:41;;;;;;;;;;;12.80;99.90;;;;;;5075315;28;20377;-65
2023/04/07 13:04:08;;;;;;;;;;;12.80;99.90;;;;;;5058544;28;19924;-66
2023/04/07 13:06:33;;;;;;;;;;;12.80;99.90;;;;;;5075379;28;19970;-66
2023/04/07 13:08:59;;;;;;;;;;;12.90;99.90;;;;;;5075678;28;19973;-66
2023/04/07 13:11:25;;;;;;;;;;;12.90;99.90;;;;;;5075567;28;19924;-66
2023/04/07 13:13:50;;;;;;;;;;;13.00;99.90;;;;;;5075041;28;20293;-66
2023/04/07 13:16:16;;;;;;;;;;;13.00;99.90;;;;;;5074905;28;19939;-66
2023/04/07 13:18:41;;;;;;;;;;;13.10;99.90;;;;;;5075175;28;19946;-66
2023/04/07 13:21:07;;;;;;;;;;;13.20;99.90;;;;;;5074637;28;19931;-66
2023/04/07 13:23:33;;;;;;;;;;;13.30;99.90;;;;;;5058672;28;19924;-66
2023/04/07 13:25:58;;;;;;;;;;;13.30;99.90;;;;;;5074649;28;19931;-66
2023/04/07 13:28:24;;;;;;;;;;;13.30;99.90;;;;;;5074112;28;19924;-66
2023/04/07 13:30:49;;;;;;;;;;;13.30;99.90;;;;;;5075009;28;19928;-66
2023/04/07 13:33:15;;;;;;;;;;;13.30;99.90;;;;;;5074750;28;20011;-66
2023/04/07 13:35:41;;;;;;;;;;;13.20;99.90;;;;;;5074882;28;19924;-65
2023/04/07 13:38:07;;;;;;;;;;;13.20;99.90;;;;;;5091924;28;19946;-67
2023/04/07 13:40:33;;;;;;;;;;;13.10;99.90;;;;;;5074686;28;19926;-66
2023/04/07 13:42:59;;;;;;;;;;;13.40;99.90;;;;;;5074909;28;20011;-66
2023/04/07 13:45:25;;;;;;;;;;;13.10;99.90;;;;;;5074412;28;19920;-66
2023/04/07 13:47:51;;;;;;;;;;;13.10;99.90;;;;;;5074557;28;19951;-67
2023/04/07 13:50:17;;;;;;;;;;;13.00;99.90;;;;;;5057799;28;19924;-66
2023/04/07 13:52:42;;;;;;;;;;;13.00;99.90;;;;;;5057722;28;19928;-67
2023/04/07 13:55:08;;;;;;;;;;;13.00;99.90;;;;;;5074331;28;20010;-67
2023/04/07 13:57:34;;;;;;;;;;;12.90;99.90;;;;;;5074176;28;19924;-67
2023/04/07 14:00:00;;;;;;;;;;;12.90;99.90;;;;;;5074163;28;19924;-69
2023/04/07 14:02:28;;;;;;;;;;;12.90;99.90;;;;;;5091846;28;20001;-69
2023/04/07 14:04:54;;;;;;;;;;;12.90;99.90;;;;;;5091484;28;19951;-69
2023/04/07 14:07:20;;;;;;;;;;;12.90;99.90;;;;;;5091764;28;20066;-71
2023/04/07 14:09:47;;;;;;;;;;;13.00;99.90;;;;;;5074118;28;20014;-71
2023/04/07 14:12:13;;;;;;;;;;;13.00;99.90;;;;;;5057247;28;20018;-71
2023/04/07 14:14:38;;;;;;;;;;;13.10;99.90;;;;;;5074026;28;20340;-66
2023/04/07 14:17:04;;;;;;;;;;;13.10;99.90;;;;;;5091830;28;19924;-65
2023/04/07 14:19:30;;;;;;;;;;;13.10;99.90;;;;;;5091494;28;19947;-66
2023/04/07 14:21:55;;;;;;;;;;;13.20;99.90;;;;;;5073313;28;19958;-66
2023/04/07 14:24:21;;;;;;;;;;;13.20;99.90;;;;;;5090910;28;19928;-66